createdAt,value
2018-11-14T00:00:06.245Z,22.73
2018-11-14T00:02:33.869Z,22.87
2018-11-14T00:05:02.143Z,20.00
2018-11-14T00:07:29.785Z,17.67
2018-11-14T00:10:12.353Z,23.33
2018-11-14T00:12:40.006Z,21.00
2018-11-14T00:15:12.420Z,21.40
2018-11-14T00:17:40.809Z,20.83
2018-11-14T00:20:09.516Z,22.90
2018-11-14T00:22:37.261Z,22.00
2018-11-14T00:25:05.215Z,21.00
2018-11-14T00:27:33.000Z,32.73
2018-11-14T00:30:00.551Z,17.23
2018-11-14T00:32:28.246Z,19.13
2018-11-14T00:34:55.828Z,23.57
2018-11-14T00:37:23.393Z,25.90
2018-11-14T00:39:51.129Z,20.97
2018-11-14T00:42:18.873Z,24.93
2018-11-14T00:44:46.516Z,26.27
2018-11-14T00:47:14.287Z,23.90
2018-11-14T00:49:42.013Z,23.00
2018-11-14T00:52:09.708Z,25.80
2018-11-14T00:54:37.308Z,27.63
2018-11-14T00:57:04.969Z,24.90
2018-11-14T00:59:32.580Z,30.17
2018-11-14T01:02:00.299Z,32.13
2018-11-14T01:04:28.157Z,31.50
2018-11-14T01:06:56.066Z,24.27
2018-11-14T01:09:23.816Z,23.23
2018-11-14T01:11:51.492Z,28.00
2018-11-14T01:14:19.220Z,28.73
2018-11-14T01:16:47.228Z,29.43
2018-11-14T01:19:15.339Z,34.90
2018-11-14T01:21:43.053Z,29.90
2018-11-14T01:24:10.736Z,31.07
2018-11-14T01:26:38.306Z,33.50
2018-11-14T01:29:05.942Z,32.97
2018-11-14T01:31:33.832Z,30.40
2018-11-14T01:34:01.566Z,31.30
2018-11-14T01:36:29.203Z,33.77
2018-11-14T01:38:57.003Z,32.70
2018-11-14T01:41:25.078Z,28.90
2018-11-14T01:43:52.923Z,34.70
2018-11-14T01:46:20.704Z,35.90
2018-11-14T01:48:48.459Z,35.20
2018-11-14T01:51:16.128Z,28.40
2018-11-14T01:53:43.767Z,32.90
2018-11-14T01:56:11.412Z,34.37
2018-11-14T01:58:39.060Z,34.47
2018-11-14T02:01:06.761Z,34.53
2018-11-14T02:03:34.531Z,36.93
2018-11-14T02:06:02.161Z,39.80
2018-11-14T02:08:29.779Z,41.90
2018-11-14T02:10:57.522Z,37.17
2018-11-14T02:13:25.329Z,36.77
2018-11-14T02:15:52.952Z,36.83
2018-11-14T02:18:20.551Z,37.30
2018-11-14T02:20:48.161Z,36.57
2018-11-14T02:23:15.790Z,34.60
2018-11-14T02:25:43.378Z,35.37
2018-11-14T02:28:10.995Z,36.37
2018-11-14T02:30:38.621Z,40.00
2018-11-14T02:33:06.217Z,32.70
2018-11-14T02:35:33.834Z,42.40
2018-11-14T02:38:01.540Z,35.77
2018-11-14T02:40:29.200Z,32.97
2018-11-14T02:42:56.821Z,33.90
2018-11-14T02:45:24.556Z,39.40
2018-11-14T02:47:52.201Z,33.90
2018-11-14T02:50:19.918Z,34.33
2018-11-14T02:52:47.684Z,38.37
2018-11-14T02:55:16.246Z,33.07
2018-11-14T02:57:44.279Z,38.23
2018-11-14T03:00:14.003Z,36.27
2018-11-14T03:02:42.252Z,36.10
2018-11-14T03:05:10.202Z,37.33
2018-11-14T03:07:38.159Z,44.70
2018-11-14T03:10:09.355Z,40.97
2018-11-14T03:12:37.122Z,39.60
2018-11-14T03:15:07.396Z,45.73
2018-11-14T03:17:35.049Z,40.63
2018-11-14T03:20:02.951Z,37.93
2018-11-14T03:22:30.554Z,45.87
2018-11-14T03:24:58.211Z,38.03
2018-11-14T03:27:26.063Z,44.03
2018-11-14T03:29:53.614Z,41.60
2018-11-14T03:32:21.193Z,37.03
2018-11-14T03:34:48.884Z,35.20
2018-11-14T03:37:16.519Z,39.50
2018-11-14T03:39:44.135Z,40.13
2018-11-14T03:42:11.704Z,37.30
2018-11-14T03:44:39.289Z,36.23
2018-11-14T03:47:07.124Z,45.93
2018-11-14T03:49:34.755Z,36.70
2018-11-14T03:52:02.373Z,49.07
2018-11-14T03:54:30.053Z,45.53
2018-11-14T03:56:57.742Z,41.77
2018-11-14T03:59:25.327Z,40.00
2018-11-14T04:01:53.013Z,38.60
2018-11-14T04:04:20.614Z,37.40
2018-11-14T04:06:48.190Z,46.93
2018-11-14T04:09:15.945Z,47.60
2018-11-14T04:11:43.758Z,41.87
2018-11-14T04:14:11.617Z,41.87
2018-11-14T04:16:39.481Z,51.17
2018-11-14T04:19:07.652Z,41.20
2018-11-14T04:21:35.626Z,47.47
2018-11-14T04:24:03.584Z,48.30
2018-11-14T04:26:31.421Z,46.77
2018-11-14T04:28:59.494Z,46.87
2018-11-14T04:31:27.507Z,54.77
2018-11-14T04:33:55.252Z,63.80
2018-11-14T04:36:23.097Z,58.00
2018-11-14T04:38:50.992Z,65.47
2018-11-14T04:41:18.908Z,62.50
2018-11-14T04:43:46.784Z,65.60
2018-11-14T04:46:14.593Z,58.23
2018-11-14T04:48:42.663Z,66.57
2018-11-14T04:51:10.585Z,61.97
2018-11-14T04:53:38.616Z,65.83
2018-11-14T04:56:06.585Z,66.40
2018-11-14T04:58:34.545Z,72.10
2018-11-14T05:01:02.503Z,72.97
2018-11-14T05:03:30.371Z,65.30
2018-11-14T05:05:58.246Z,65.60
2018-11-14T05:08:26.275Z,64.03
2018-11-14T05:10:54.503Z,72.73
2018-11-14T05:13:22.351Z,62.90
2018-11-14T05:15:50.197Z,71.33
2018-11-14T05:18:17.979Z,77.80
2018-11-14T05:20:46.432Z,81.17
2018-11-14T05:23:14.105Z,66.77
2018-11-14T05:25:41.740Z,86.07
2018-11-14T05:28:09.352Z,75.43
2018-11-14T05:30:37.059Z,83.40
2018-11-14T05:33:05.409Z,72.77
2018-11-14T05:35:33.650Z,81.27
2018-11-14T05:38:01.320Z,88.17
2018-11-14T05:40:29.067Z,77.13
2018-11-14T05:42:56.728Z,77.83
2018-11-14T05:45:25.415Z,75.63
2018-11-14T05:47:53.060Z,85.33
2018-11-14T05:50:21.657Z,80.70
2018-11-14T05:52:49.589Z,87.97
2018-11-14T05:55:17.542Z,102.50
2018-11-14T05:57:45.273Z,83.13
2018-11-14T06:00:25.062Z,83.07
2018-11-14T06:02:52.788Z,84.70
2018-11-14T06:05:20.525Z,91.87
2018-11-14T06:07:48.320Z,78.37
2018-11-14T06:10:15.999Z,74.93
2018-11-14T06:12:43.818Z,80.87
2018-11-14T06:15:13.935Z,73.90
2018-11-14T06:17:42.551Z,74.97
2018-11-14T06:20:12.596Z,73.97
2018-11-14T06:22:40.552Z,71.33
2018-11-14T06:25:36.352Z,70.03
2018-11-14T06:28:05.321Z,87.17
2018-11-14T06:30:33.710Z,70.87
2018-11-14T06:33:02.321Z,89.17
2018-11-14T06:35:29.894Z,83.60
2018-11-14T06:37:57.792Z,82.80
2018-11-14T06:40:25.512Z,75.30
2018-11-14T06:42:53.232Z,77.57
2018-11-14T06:45:22.207Z,78.60
2018-11-14T06:47:51.083Z,68.67
2018-11-14T06:50:18.648Z,69.17
2018-11-14T06:52:47.543Z,78.43
2018-11-14T06:55:16.096Z,70.37
2018-11-14T06:57:43.674Z,72.43
2018-11-14T07:00:14.414Z,67.40
2018-11-14T07:02:42.679Z,73.63
2018-11-14T07:05:12.681Z,74.73
2018-11-14T07:07:40.356Z,73.57
2018-11-14T07:10:09.744Z,80.77
2018-11-14T07:12:37.402Z,76.03
2018-11-14T07:15:07.440Z,65.80
2018-11-14T07:17:35.218Z,62.43
2018-11-14T07:20:03.612Z,57.53
2018-11-14T07:22:31.180Z,62.10
2018-11-14T07:24:58.829Z,67.37
2018-11-14T07:27:26.873Z,77.40
2018-11-14T07:29:54.400Z,63.90
2018-11-14T07:32:21.972Z,69.57
2018-11-14T07:34:49.624Z,66.20
2018-11-14T07:37:17.268Z,71.43
2018-11-14T07:39:44.893Z,61.53
2018-11-14T07:42:12.636Z,62.57
2018-11-14T07:44:40.187Z,61.20
2018-11-14T07:47:07.896Z,67.57
2018-11-14T07:49:35.510Z,53.10
2018-11-14T07:52:03.159Z,61.20
2018-11-14T07:54:30.925Z,62.43
2018-11-14T07:56:58.709Z,59.00
2018-11-14T07:59:26.327Z,57.73
2018-11-14T08:01:54.023Z,52.23
2018-11-14T08:04:22.169Z,64.70
2018-11-14T08:06:49.820Z,58.97
2018-11-14T08:09:17.436Z,57.50
2018-11-14T08:11:45.014Z,55.70
2018-11-14T08:14:12.642Z,49.83
2018-11-14T08:16:40.456Z,50.47
2018-11-14T08:19:08.127Z,50.73
2018-11-14T08:21:35.782Z,49.63
2018-11-14T08:24:03.352Z,46.57
2018-11-14T08:26:30.910Z,43.93
2018-11-14T08:28:58.969Z,45.40
2018-11-14T08:31:26.653Z,43.03
2018-11-14T08:33:54.198Z,42.47
2018-11-14T08:36:21.791Z,45.97
2018-11-14T08:38:49.404Z,41.07
2018-11-14T08:41:17.036Z,45.30
2018-11-14T08:43:44.665Z,45.23
2018-11-14T08:46:12.335Z,35.80
2018-11-14T08:48:39.962Z,40.77
2018-11-14T08:51:07.952Z,38.10
2018-11-14T08:53:35.635Z,38.37
2018-11-14T08:56:03.735Z,38.97
2018-11-14T08:58:31.799Z,37.87
2018-11-14T09:00:59.771Z,36.87
2018-11-14T09:03:27.471Z,39.40
2018-11-14T09:05:55.139Z,41.40
2018-11-14T09:08:22.817Z,32.80
2018-11-14T09:10:50.492Z,34.73
2018-11-14T09:13:18.638Z,35.87
2018-11-14T09:15:46.283Z,30.57
2018-11-14T09:18:14.051Z,36.00
2018-11-14T09:20:41.619Z,30.10
2018-11-14T09:23:09.313Z,30.23
2018-11-14T09:25:36.880Z,31.50
2018-11-14T09:28:04.752Z,36.50
2018-11-14T09:30:32.397Z,32.30
2018-11-14T09:33:00.055Z,27.03
2018-11-14T09:35:28.358Z,30.03
2018-11-14T09:37:57.327Z,38.00
2018-11-14T09:40:26.607Z,30.63
2018-11-14T09:42:54.330Z,30.87
2018-11-14T09:45:24.492Z,29.93
2018-11-14T09:47:52.128Z,30.40
2018-11-14T09:50:21.164Z,30.03
2018-11-14T09:52:51.249Z,32.87
2018-11-14T09:55:18.864Z,26.40
2018-11-14T09:57:46.839Z,28.77
2018-11-14T10:00:17.881Z,25.20
2018-11-14T10:02:47.770Z,31.67
2018-11-14T10:05:17.211Z,34.37
2018-11-14T10:07:45.319Z,30.10
2018-11-14T10:10:14.412Z,30.33
2018-11-14T10:12:42.052Z,24.37
2018-11-14T10:15:12.224Z,30.00
2018-11-14T10:17:40.520Z,25.97
2018-11-14T10:20:10.457Z,24.47
2018-11-14T10:22:38.381Z,26.43
2018-11-14T10:25:06.241Z,24.67
2018-11-14T10:27:34.363Z,24.70
2018-11-14T10:30:02.312Z,32.53
2018-11-14T10:32:30.118Z,26.90
2018-11-14T10:34:57.958Z,24.03
2018-11-14T10:37:25.559Z,24.40
2018-11-14T10:39:53.165Z,23.83
2018-11-14T10:42:20.774Z,24.10
2018-11-14T10:44:49.295Z,22.60
2018-11-14T10:47:17.036Z,24.23
2018-11-14T10:49:44.806Z,23.50
2018-11-14T10:52:12.454Z,26.47
2018-11-14T10:54:40.063Z,22.43
2018-11-14T10:57:07.726Z,20.40
2018-11-14T10:59:35.410Z,24.30
2018-11-14T11:02:09.069Z,22.00
2018-11-14T11:04:42.297Z,19.20
2018-11-14T11:07:15.688Z,19.20
2018-11-14T11:09:48.960Z,19.40
2018-11-14T11:12:22.177Z,19.63
2018-11-14T11:14:56.039Z,18.77
2018-11-14T11:18:27.030Z,23.10
2018-11-14T11:20:54.640Z,19.53
2018-11-14T11:23:22.872Z,17.40
2018-11-14T11:25:50.475Z,16.63
2018-11-14T11:28:18.136Z,16.80
2018-11-14T11:30:46.388Z,18.13
2018-11-14T11:33:13.941Z,17.63
2018-11-14T11:35:41.751Z,24.70
2018-11-14T11:38:09.743Z,20.27
2018-11-14T11:40:37.373Z,15.47
2018-11-14T11:43:05.556Z,28.53
2018-11-14T11:45:33.773Z,21.47
2018-11-14T11:48:01.708Z,17.50
2018-11-14T11:50:29.678Z,18.50
2018-11-14T11:52:57.283Z,18.40
2018-11-14T11:55:24.908Z,18.73
2018-11-14T11:57:52.863Z,22.30
2018-11-14T12:00:20.688Z,18.20
2018-11-14T12:02:49.473Z,19.00
2018-11-14T12:05:17.073Z,16.20
2018-11-14T12:07:44.672Z,15.97
2018-11-14T12:10:14.234Z,15.20
2018-11-14T12:12:42.716Z,17.03
2018-11-14T12:15:11.238Z,16.97
2018-11-14T12:17:39.549Z,18.27
2018-11-14T12:20:08.638Z,16.00
2018-11-14T12:22:36.856Z,17.40
2018-11-14T12:25:05.056Z,14.50
2018-11-14T12:27:33.325Z,20.13
2018-11-14T12:30:00.994Z,15.57
2018-11-14T12:32:28.494Z,15.63
2018-11-14T12:34:56.112Z,22.90
2018-11-14T12:37:23.769Z,18.00
2018-11-14T12:39:51.364Z,16.80
2018-11-14T12:42:18.991Z,16.33
2018-11-14T12:44:46.580Z,16.20
2018-11-14T12:47:14.233Z,18.60
2018-11-14T12:49:41.856Z,17.37
2018-11-14T12:52:09.433Z,20.67
2018-11-14T12:54:37.151Z,18.77
2018-11-14T12:57:04.768Z,19.60
2018-11-14T12:59:32.455Z,19.60
2018-11-14T13:02:00.102Z,14.97
2018-11-14T13:04:27.732Z,18.90
2018-11-14T13:06:55.388Z,17.97
2018-11-14T13:09:22.945Z,18.50
2018-11-14T13:11:50.611Z,16.83
2018-11-14T13:14:18.284Z,13.70
2018-11-14T13:16:45.988Z,14.53
2018-11-14T13:19:13.944Z,18.47
2018-11-14T13:21:41.588Z,13.43
2018-11-14T13:24:09.335Z,13.40
2018-11-14T13:26:37.144Z,13.53
2018-11-14T13:29:04.895Z,14.40
2018-11-14T13:31:32.543Z,16.00
2018-11-14T13:34:00.333Z,12.43
2018-11-14T13:36:28.302Z,12.33
2018-11-14T13:38:56.059Z,14.00
2018-11-14T13:41:23.895Z,14.20
2018-11-14T13:43:51.556Z,11.93
2018-11-14T13:46:19.307Z,11.63
2018-11-14T13:48:47.013Z,12.33
2018-11-14T13:51:14.930Z,12.70
2018-11-14T13:53:42.273Z,16.43
2018-11-14T13:56:09.888Z,12.83
2018-11-14T13:58:37.519Z,12.30
2018-11-14T14:01:05.207Z,12.33
2018-11-14T14:03:33.048Z,17.80
2018-11-14T14:06:01.090Z,11.10
2018-11-14T14:08:28.797Z,13.53
2018-11-14T14:10:56.479Z,9.93
2018-11-14T14:13:24.139Z,14.87
2018-11-14T14:15:51.821Z,14.90
2018-11-14T14:18:19.868Z,12.50
2018-11-14T14:20:47.868Z,11.00
2018-11-14T14:23:15.827Z,10.50
2018-11-14T14:25:43.408Z,10.10
2018-11-14T14:28:11.088Z,11.27
2018-11-14T14:33:41.507Z,11.63
2018-11-14T14:36:09.252Z,11.07
2018-11-14T14:38:36.867Z,9.00
2018-11-14T14:41:04.978Z,9.77
2018-11-14T14:43:32.609Z,12.93
2018-11-14T14:46:00.668Z,9.80
2018-11-14T14:48:28.356Z,9.67
2018-11-14T14:50:56.091Z,15.13
2018-11-14T14:53:23.770Z,9.33
2018-11-14T14:55:51.635Z,14.83
2018-11-14T14:58:19.385Z,8.37
2018-11-14T15:00:47.113Z,9.73
2018-11-14T15:03:15.013Z,7.60
2018-11-14T15:05:42.615Z,13.03
2018-11-14T15:08:10.238Z,9.83
2018-11-14T15:10:37.904Z,9.30
2018-11-14T15:13:05.628Z,8.60
2018-11-14T15:15:33.213Z,12.93
2018-11-14T15:18:00.904Z,12.23
2018-11-14T15:20:28.545Z,16.27
2018-11-14T15:22:56.127Z,11.90
2018-11-14T15:25:23.864Z,13.90
2018-11-14T15:27:51.711Z,12.80
2018-11-14T15:30:26.395Z,8.27
2018-11-14T15:32:54.047Z,6.73
2018-11-14T15:35:21.884Z,7.03
2018-11-14T15:37:49.402Z,8.13
2018-11-14T15:40:18.127Z,9.30
2018-11-14T15:42:46.013Z,7.00
2018-11-14T15:45:21.892Z,12.70
2018-11-14T15:47:49.546Z,8.40
2018-11-14T15:50:19.450Z,13.30
2018-11-14T15:52:49.316Z,9.33
2018-11-14T15:55:18.068Z,9.10
2018-11-14T15:57:45.778Z,8.47
2018-11-14T16:00:18.084Z,7.73
2018-11-14T16:02:45.726Z,10.23
2018-11-14T16:05:14.736Z,10.37
2018-11-14T16:07:43.341Z,10.23
2018-11-14T16:10:12.326Z,6.40
2018-11-14T16:12:40.703Z,11.10
2018-11-14T16:15:10.287Z,7.23
2018-11-14T16:17:38.469Z,13.87
2018-11-14T16:20:07.951Z,8.90
2018-11-14T16:22:35.559Z,8.83
2018-11-14T16:25:03.513Z,11.13
2018-11-14T16:27:31.358Z,8.47
2018-11-14T16:29:58.954Z,11.90
2018-11-14T16:32:26.531Z,9.60
2018-11-14T16:34:54.082Z,14.47
2018-11-14T16:37:21.812Z,11.30
2018-11-14T16:39:49.735Z,15.33
2018-11-14T16:42:17.371Z,14.97
2018-11-14T16:44:45.028Z,14.70
2018-11-14T16:47:15.931Z,20.13
2018-11-14T16:49:43.643Z,15.40
2018-11-14T16:52:11.186Z,20.47
2018-11-14T16:54:38.780Z,11.23
2018-11-14T16:57:06.444Z,18.33
2018-11-14T16:59:34.134Z,17.20
2018-11-14T17:02:01.862Z,17.03
2018-11-14T17:04:29.652Z,19.67
2018-11-14T17:06:57.465Z,20.50
2018-11-14T17:09:25.028Z,25.57
2018-11-14T17:11:52.755Z,26.30
2018-11-14T17:14:20.499Z,21.43
2018-11-14T17:16:48.035Z,24.37
2018-11-14T17:19:15.660Z,25.10
2018-11-14T17:21:43.303Z,27.63
2018-11-14T17:24:15.548Z,24.70
2018-11-14T17:26:43.210Z,14.07
2018-11-14T17:29:10.816Z,14.73
2018-11-14T17:31:38.466Z,14.47
2018-11-14T17:34:06.481Z,26.03
2018-11-14T17:36:35.004Z,22.70
2018-11-14T17:39:03.965Z,19.97
2018-11-14T17:41:31.817Z,22.03
2018-11-14T17:43:59.978Z,27.50
2018-11-14T17:46:27.600Z,27.90
2018-11-14T17:48:55.275Z,18.93
2018-11-14T17:51:23.127Z,13.77
2018-11-14T17:53:50.859Z,13.90
2018-11-14T17:56:18.659Z,11.70
2018-11-14T17:58:46.326Z,13.33
2018-11-14T18:01:14.097Z,15.63
2018-11-14T18:03:42.005Z,10.90
2018-11-14T18:06:09.681Z,14.37
2018-11-14T18:08:37.315Z,7.70
2018-11-14T18:11:05.535Z,12.60
2018-11-14T18:13:33.992Z,11.70
2018-11-14T18:16:01.744Z,15.57
2018-11-14T18:18:29.559Z,12.33
2018-11-14T18:20:57.555Z,14.57
2018-11-14T18:23:25.247Z,13.00
2018-11-14T18:25:52.840Z,21.70
2018-11-14T18:28:20.590Z,37.93
2018-11-14T18:30:48.387Z,21.83
2018-11-14T18:33:15.883Z,24.80
2018-11-14T18:35:45.632Z,28.93
2018-11-14T18:38:13.293Z,21.50
2018-11-14T18:40:41.230Z,25.80
2018-11-14T18:43:09.266Z,26.20
2018-11-14T18:45:36.926Z,24.77
2018-11-14T18:48:05.331Z,26.83
2018-11-14T18:50:33.410Z,24.20
2018-11-14T18:53:01.058Z,24.37
2018-11-14T18:55:31.151Z,17.43
2018-11-14T18:58:02.055Z,19.60
2018-11-14T19:00:31.261Z,19.93
2018-11-14T19:02:59.173Z,19.97
2018-11-14T19:05:26.781Z,22.37
2018-11-14T19:07:54.538Z,17.37
2018-11-14T19:10:26.928Z,19.77
2018-11-14T19:12:54.562Z,22.67
2018-11-14T19:15:25.363Z,14.87
2018-11-14T19:17:53.229Z,18.23
2018-11-14T19:20:23.911Z,15.07
2018-11-14T19:22:53.392Z,15.23
2018-11-14T19:25:22.624Z,19.77
2018-11-14T19:27:50.339Z,15.47
2018-11-14T19:30:21.285Z,13.07
2018-11-14T19:32:50.234Z,11.27
2018-11-14T19:35:18.128Z,11.27
2018-11-14T19:37:46.940Z,11.57
2018-11-14T19:40:16.017Z,13.27
2018-11-14T19:42:44.232Z,14.23
2018-11-14T19:45:14.868Z,12.70
2018-11-14T19:47:42.982Z,14.90
2018-11-14T19:50:12.729Z,19.23
2018-11-14T19:52:40.823Z,19.43
2018-11-14T19:55:10.045Z,17.40
2018-11-14T19:57:37.976Z,14.90
2018-11-14T20:00:10.270Z,16.20
2018-11-14T20:02:38.275Z,15.77
2018-11-14T20:05:07.167Z,15.77
2018-11-14T20:07:35.279Z,16.20
2018-11-14T20:10:04.122Z,12.83
2018-11-14T20:12:32.102Z,13.23
2018-11-14T20:15:00.189Z,14.03
2018-11-14T20:17:27.937Z,14.00
2018-11-14T20:19:55.503Z,15.50
2018-11-14T20:22:23.243Z,13.57
2018-11-14T20:24:51.595Z,14.80
2018-11-14T20:27:19.205Z,13.63
2018-11-14T20:29:46.891Z,17.47
2018-11-14T20:32:14.555Z,18.10
2018-11-14T20:34:42.229Z,19.67
2018-11-14T20:37:09.894Z,14.30
2018-11-14T20:39:37.523Z,17.20
2018-11-14T20:42:05.755Z,15.60
2018-11-14T20:44:33.322Z,20.83
2018-11-14T20:47:00.887Z,16.03
2018-11-14T20:49:28.528Z,14.93
2018-11-14T20:51:56.084Z,14.63
2018-11-14T20:54:23.768Z,14.00
2018-11-14T20:56:52.581Z,16.67
2018-11-14T20:59:20.419Z,15.93
2018-11-14T21:01:48.001Z,16.07
2018-11-14T21:04:15.527Z,17.77
2018-11-14T21:06:43.111Z,16.37
2018-11-14T21:09:11.136Z,15.17
2018-11-14T21:11:38.830Z,14.57
2018-11-14T21:14:06.509Z,15.50
2018-11-14T21:16:34.138Z,16.80
2018-11-14T21:19:01.698Z,17.90
2018-11-14T21:21:29.345Z,14.07
2018-11-14T21:23:57.059Z,17.13
2018-11-14T21:26:24.893Z,15.83
2018-11-14T21:28:53.023Z,14.37
2018-11-14T21:31:20.661Z,18.30
2018-11-14T21:33:48.287Z,15.70
2018-11-14T21:36:16.457Z,15.53
2018-11-14T21:38:44.273Z,13.67
2018-11-14T21:41:12.016Z,16.60
2018-11-14T21:43:39.768Z,15.10
2018-11-14T21:46:07.288Z,18.53
2018-11-14T21:48:34.902Z,14.77
2018-11-14T21:51:02.473Z,13.60
2018-11-14T21:53:30.022Z,16.40
2018-11-14T21:55:57.882Z,14.53
2018-11-14T21:58:25.667Z,16.93
2018-11-14T22:00:54.111Z,17.67
2018-11-14T22:03:21.668Z,17.47
2018-11-14T22:05:49.573Z,14.63
2018-11-14T22:08:17.219Z,16.80
2018-11-14T22:10:44.851Z,18.77
2018-11-14T22:13:13.444Z,14.97
2018-11-14T22:15:41.036Z,15.33
2018-11-14T22:18:08.940Z,16.13
2018-11-14T22:20:36.510Z,20.60
2018-11-14T22:23:04.512Z,21.67
2018-11-14T22:25:32.131Z,14.30
2018-11-14T22:27:59.860Z,20.13
2018-11-14T22:30:31.643Z,19.27
2018-11-14T22:32:59.352Z,16.67
2018-11-14T22:35:28.236Z,19.60
2018-11-14T22:37:55.875Z,19.03
2018-11-14T22:40:25.916Z,19.47
2018-11-14T22:42:53.684Z,22.23
2018-11-14T22:45:23.572Z,21.03
2018-11-14T22:47:51.143Z,21.73
2018-11-14T22:50:21.632Z,20.90
2018-11-14T22:52:49.634Z,20.53
2018-11-14T22:55:18.480Z,19.20
2018-11-14T22:57:46.943Z,21.17
2018-11-14T23:00:52.255Z,20.13
2018-11-14T23:03:19.803Z,20.40
2018-11-14T23:05:47.480Z,19.40
2018-11-14T23:08:15.104Z,22.67
2018-11-14T23:10:42.715Z,20.90
2018-11-14T23:13:10.380Z,20.20
2018-11-14T23:15:38.015Z,23.33
2018-11-14T23:18:05.546Z,22.73
2018-11-14T23:20:33.345Z,20.77
2018-11-14T23:23:00.991Z,18.83
2018-11-14T23:25:28.817Z,19.13
2018-11-14T23:27:56.589Z,25.00
2018-11-14T23:30:25.620Z,23.37
2018-11-14T23:32:54.844Z,19.87
2018-11-14T23:35:23.828Z,19.53
2018-11-14T23:37:52.775Z,19.17
2018-11-14T23:40:20.564Z,19.80
2018-11-14T23:42:49.125Z,22.53
2018-11-14T23:45:17.594Z,27.87
2018-11-14T23:47:45.898Z,22.03
2018-11-14T23:50:15.006Z,19.90
2018-11-14T23:52:44.095Z,43.87
2018-11-14T23:55:11.765Z,20.53
2018-11-14T23:57:39.730Z,21.70
